createdAt,value
2023-01-27T00:01:09.019Z,9.35
2023-01-27T00:03:37.712Z,10.60
2023-01-27T00:06:06.682Z,10.50
2023-01-27T00:08:34.522Z,10.20
2023-01-27T00:11:20.794Z,10.20
2023-01-27T00:13:48.474Z,9.50
2023-01-27T00:16:16.020Z,8.82
2023-01-27T00:18:43.755Z,9.65
2023-01-27T00:21:29.959Z,8.73
2023-01-27T00:24:15.882Z,9.63
2023-01-27T00:29:10.648Z,9.35
2023-01-27T00:31:56.908Z,8.88
2023-01-27T00:34:24.299Z,9.27
2023-01-27T00:36:51.681Z,8.65
2023-01-27T00:39:19.106Z,9.35
2023-01-27T00:41:46.472Z,9.13
2023-01-27T00:44:14.084Z,8.90
2023-01-27T00:46:43.007Z,9.77
2023-01-27T00:49:13.456Z,9.00
2023-01-27T00:51:41.397Z,9.20
2023-01-27T00:54:09.344Z,9.63
2023-01-27T00:56:37.443Z,9.52
2023-01-27T00:59:05.299Z,8.82
2023-01-27T01:01:34.154Z,9.25
2023-01-27T01:04:01.768Z,8.85
2023-01-27T01:06:29.375Z,9.18
2023-01-27T01:08:58.112Z,8.50
2023-01-27T01:11:26.535Z,8.85
2023-01-27T01:13:56.295Z,8.40
2023-01-27T01:16:25.145Z,8.98
2023-01-27T01:18:52.944Z,8.52
2023-01-27T01:21:21.448Z,8.90
2023-01-27T01:23:48.922Z,8.68
2023-01-27T01:26:19.852Z,9.10
2023-01-27T01:28:48.303Z,9.60
2023-01-27T01:31:18.801Z,9.10
2023-01-27T01:33:47.724Z,9.00
2023-01-27T01:36:18.342Z,9.25
2023-01-27T01:38:46.710Z,9.00
2023-01-27T01:41:33.002Z,9.18
2023-01-27T01:44:19.963Z,9.65
2023-01-27T01:46:47.477Z,9.38
2023-01-27T01:49:18.179Z,9.43
2023-01-27T01:51:53.802Z,8.98
2023-01-27T01:57:10.341Z,9.40
2023-01-27T02:00:02.097Z,9.32
2023-01-27T02:02:31.496Z,9.40
2023-01-27T02:05:06.478Z,9.82
2023-01-27T02:07:43.378Z,10.30
2023-01-27T02:10:12.710Z,9.85
2023-01-27T02:12:40.401Z,9.50
2023-01-27T02:15:10.166Z,10.10
2023-01-27T02:17:38.014Z,10.13
2023-01-27T02:20:09.440Z,10.35
2023-01-27T02:22:59.439Z,10.43
2023-01-27T02:25:35.497Z,10.20
2023-01-27T02:28:05.624Z,9.88
2023-01-27T02:30:33.858Z,10.27
2023-01-27T02:33:01.575Z,10.40
2023-01-27T02:35:37.768Z,10.73
2023-01-27T02:38:10.006Z,10.57
2023-01-27T02:40:38.010Z,10.90
2023-01-27T02:43:06.125Z,10.50
2023-01-27T02:45:33.710Z,10.32
2023-01-27T02:48:01.262Z,11.10
2023-01-27T02:50:29.042Z,11.20
2023-01-27T02:52:56.815Z,11.05
2023-01-27T02:55:24.302Z,10.98
2023-01-27T02:57:52.475Z,10.50
2023-01-27T03:00:38.392Z,10.50
2023-01-27T03:03:06.388Z,10.63
2023-01-27T03:05:33.956Z,10.23
2023-01-27T03:08:01.619Z,11.55
2023-01-27T03:10:29.238Z,10.50
2023-01-27T03:12:58.811Z,10.63
2023-01-27T03:15:44.849Z,10.80
2023-01-27T03:18:13.564Z,10.43
2023-01-27T03:20:48.786Z,10.48
2023-01-27T03:23:19.089Z,11.30
2023-01-27T03:25:51.624Z,10.23
2023-01-27T03:28:19.481Z,10.98
2023-01-27T03:31:19.741Z,10.70
2023-01-27T03:33:53.807Z,9.77
2023-01-27T03:37:06.271Z,10.30
2023-01-27T03:39:53.971Z,10.15
2023-01-27T03:45:26.486Z,10.38
2023-01-27T03:47:54.054Z,10.68
2023-01-27T03:50:37.636Z,9.80
2023-01-27T03:53:05.676Z,10.30
2023-01-27T03:55:34.791Z,9.90
2023-01-27T03:58:18.548Z,9.93
2023-01-27T04:00:47.815Z,8.80
2023-01-27T04:03:33.854Z,8.82
2023-01-27T04:06:22.850Z,9.35
2023-01-27T04:08:50.445Z,9.48
2023-01-27T04:11:36.801Z,9.68
2023-01-27T04:14:05.769Z,9.43
2023-01-27T04:16:36.042Z,8.65
2023-01-27T04:19:08.508Z,8.95
2023-01-27T04:21:36.153Z,9.07
2023-01-27T04:24:04.410Z,8.90
2023-01-27T04:26:34.651Z,9.00
2023-01-27T04:29:02.701Z,8.68
2023-01-27T04:31:32.791Z,8.82
2023-01-27T04:34:00.716Z,8.48
2023-01-27T04:36:28.564Z,9.00
2023-01-27T04:38:56.103Z,8.40
2023-01-27T04:41:23.579Z,8.60
2023-01-27T04:43:51.118Z,8.85
2023-01-27T04:46:18.796Z,8.85
2023-01-27T04:48:46.211Z,8.32
2023-01-27T04:51:13.743Z,7.65
2023-01-27T04:53:41.232Z,8.82
2023-01-27T04:56:21.387Z,9.43
2023-01-27T04:58:49.539Z,8.95
2023-01-27T05:01:17.342Z,8.80
2023-01-27T05:03:44.964Z,8.73
2023-01-27T05:06:13.377Z,8.70
2023-01-27T05:08:41.117Z,8.57
2023-01-27T05:11:09.259Z,8.63
2023-01-27T05:13:37.641Z,9.07
2023-01-27T05:16:27.725Z,8.77
2023-01-27T05:18:56.363Z,8.80
2023-01-27T05:21:31.143Z,9.00
2023-01-27T05:23:58.713Z,9.38
2023-01-27T05:26:27.925Z,8.98
2023-01-27T05:28:58.239Z,8.80
2023-01-27T05:31:28.710Z,8.18
2023-01-27T05:33:59.093Z,8.55
2023-01-27T05:36:27.034Z,9.13
2023-01-27T05:38:55.393Z,9.18
2023-01-27T05:41:23.154Z,9.02
2023-01-27T05:43:56.004Z,8.95
2023-01-27T05:46:26.359Z,9.00
2023-01-27T05:48:56.120Z,8.50
2023-01-27T05:51:25.774Z,8.75
2023-01-27T05:53:55.192Z,8.68
2023-01-27T05:56:23.339Z,8.60
2023-01-27T05:58:50.957Z,8.82
2023-01-27T06:01:24.095Z,8.45
2023-01-27T06:03:51.720Z,8.93
2023-01-27T06:06:21.850Z,8.38
2023-01-27T06:08:49.720Z,8.68
2023-01-27T06:11:20.027Z,8.38
2023-01-27T06:13:48.540Z,8.30
2023-01-27T06:16:18.361Z,9.15
2023-01-27T06:18:46.990Z,7.95
2023-01-27T06:21:16.318Z,8.57
2023-01-27T06:23:43.768Z,8.40
2023-01-27T06:26:16.370Z,8.05
2023-01-27T06:28:44.679Z,8.30
2023-01-27T06:31:15.119Z,8.23
2023-01-27T06:33:43.206Z,7.65
2023-01-27T06:36:13.291Z,8.25
2023-01-27T06:38:41.753Z,8.00
2023-01-27T06:41:12.031Z,8.35
2023-01-27T06:43:44.919Z,8.48
2023-01-27T06:46:24.377Z,8.32
2023-01-27T06:48:51.987Z,8.07
2023-01-27T06:51:19.628Z,8.30
2023-01-27T06:53:47.083Z,9.02
2023-01-27T06:56:16.466Z,8.50
2023-01-27T06:58:44.964Z,8.13
2023-01-27T07:01:12.519Z,9.07
2023-01-27T07:03:42.910Z,9.38
2023-01-27T07:06:11.232Z,9.02
2023-01-27T07:08:38.795Z,9.95
2023-01-27T07:11:06.516Z,8.93
2023-01-27T07:13:34.096Z,8.30
2023-01-27T07:16:01.853Z,8.40
2023-01-27T07:18:29.790Z,7.93
2023-01-27T07:20:57.465Z,8.45
2023-01-27T07:23:27.712Z,8.05
2023-01-27T07:25:55.553Z,8.55
2023-01-27T07:28:26.135Z,8.20
2023-01-27T07:30:54.082Z,8.13
2023-01-27T07:33:21.688Z,8.13
2023-01-27T07:35:50.085Z,8.07
2023-01-27T07:38:20.135Z,8.07
2023-01-27T07:40:47.773Z,8.25
2023-01-27T07:43:15.473Z,7.75
2023-01-27T07:45:49.299Z,8.10
2023-01-27T07:48:19.682Z,8.18
2023-01-27T08:00:42.363Z,7.72
2023-01-27T08:46:30.360Z,8.00
2023-01-27T08:49:49.492Z,8.27
2023-01-27T08:52:56.353Z,7.65
2023-01-27T08:56:29.897Z,7.22
2023-01-27T09:09:16.009Z,7.53
2023-01-27T09:12:10.795Z,7.95
2023-01-27T09:14:42.405Z,7.88
2023-01-27T09:17:11.707Z,7.53
2023-01-27T09:19:40.480Z,8.00
2023-01-27T09:22:15.076Z,7.50
2023-01-27T09:24:48.801Z,7.90
2023-01-27T09:28:36.302Z,8.43
2023-01-27T09:31:04.941Z,7.20
2023-01-27T09:33:39.829Z,7.97
2023-01-27T09:36:18.709Z,7.85
2023-01-27T09:38:56.543Z,7.90
2023-01-27T09:42:05.060Z,8.43
2023-01-27T09:56:03.109Z,7.70
2023-01-27T09:58:42.669Z,8.23
2023-01-27T10:01:24.674Z,8.32
2023-01-27T10:04:20.221Z,7.68
2023-01-27T10:07:26.761Z,6.72
2023-01-27T10:09:57.122Z,6.95
2023-01-27T10:12:42.310Z,6.35
2023-01-27T10:15:34.608Z,6.57
2023-01-27T10:18:40.748Z,6.63
2023-01-27T10:21:21.772Z,6.82
2023-01-27T10:24:12.459Z,6.32
2023-01-27T10:26:52.199Z,6.55
2023-01-27T10:29:44.422Z,6.75
2023-01-27T10:32:35.566Z,6.03
2023-01-27T10:35:46.023Z,6.15
2023-01-27T10:39:08.370Z,6.43
2023-01-27T10:42:19.829Z,6.80
2023-01-27T10:45:04.028Z,6.68
2023-01-27T10:47:47.565Z,6.55
2023-01-27T10:55:28.236Z,5.80
2023-01-27T10:58:06.363Z,5.82
2023-01-27T11:05:42.540Z,5.95
2023-01-27T11:27:31.968Z,5.65
2023-01-27T11:30:29.917Z,6.13
2023-01-27T11:36:49.947Z,6.50
2023-01-27T11:39:23.458Z,6.47
2023-01-27T11:41:56.264Z,6.35
2023-01-27T11:44:30.308Z,6.40
2023-01-27T11:47:23.957Z,6.30
2023-01-27T11:50:00.800Z,6.43
2023-01-27T11:52:32.988Z,6.40
2023-01-27T11:55:51.304Z,6.53
2023-01-27T11:59:59.789Z,7.07
2023-01-27T12:02:50.243Z,6.38
2023-01-27T12:06:31.569Z,6.70
2023-01-27T12:09:06.180Z,6.28
2023-01-27T12:11:33.964Z,6.90
2023-01-27T12:14:04.130Z,6.88
2023-01-27T12:17:52.347Z,6.93
2023-01-27T12:21:56.854Z,6.65
2023-01-27T12:24:58.180Z,6.35
2023-01-27T12:28:49.987Z,6.82
2023-01-27T12:32:27.456Z,6.88
2023-01-27T12:35:09.811Z,6.95
2023-01-27T12:38:03.149Z,6.53
2023-01-27T12:58:42.134Z,7.55
2023-01-27T13:41:53.025Z,6.90
2023-01-27T13:45:41.666Z,7.20
2023-01-27T14:16:11.007Z,7.80
2023-01-27T14:19:17.046Z,8.20
2023-01-27T14:22:29.657Z,8.23
2023-01-27T14:25:23.660Z,7.97
2023-01-27T14:28:45.263Z,8.15
2023-01-27T14:32:04.754Z,8.15
2023-01-27T14:34:50.641Z,7.70
2023-01-27T14:37:29.345Z,8.15
2023-01-27T14:40:08.795Z,7.60
2023-01-27T14:43:02.504Z,8.35
2023-01-27T14:45:40.114Z,8.30
2023-01-27T14:48:28.532Z,8.40
2023-01-27T14:51:06.962Z,7.90
2023-01-27T14:53:53.549Z,8.70
2023-01-27T14:57:05.884Z,8.60
2023-01-27T14:59:39.306Z,7.93
2023-01-27T15:02:40.671Z,8.55
2023-01-27T15:05:23.736Z,8.48
2023-01-27T15:08:05.627Z,9.02
2023-01-27T15:10:34.197Z,9.32
2023-01-27T15:13:48.768Z,8.43
2023-01-27T15:17:23.835Z,8.75
2023-01-27T15:27:21.181Z,8.98
2023-01-27T15:29:49.189Z,9.77
2023-01-27T15:32:19.006Z,9.45
2023-01-27T15:34:53.001Z,9.35
2023-01-27T15:37:28.467Z,9.50
2023-01-27T15:40:06.546Z,9.55
2023-01-27T15:42:52.704Z,10.38
2023-01-27T15:45:41.686Z,9.73
2023-01-27T15:48:20.888Z,9.93
2023-01-27T15:51:09.764Z,9.57
2023-01-27T16:06:32.050Z,10.63
2023-01-27T16:09:09.071Z,10.73
2023-01-27T16:11:42.019Z,10.68
2023-01-27T16:14:14.375Z,9.57
2023-01-27T16:16:50.599Z,10.57
2023-01-27T16:19:30.484Z,11.27
2023-01-27T16:22:13.122Z,10.18
2023-01-27T16:24:48.604Z,11.23
2023-01-27T16:30:13.071Z,10.98
2023-01-27T16:32:51.790Z,11.75
2023-01-27T16:35:22.397Z,11.95
2023-01-27T16:38:14.837Z,11.05
2023-01-27T16:40:51.332Z,11.25
2023-01-27T16:43:23.603Z,10.82
2023-01-27T16:45:54.643Z,10.80
2023-01-27T16:48:47.164Z,10.73
2023-01-27T16:51:20.156Z,10.73
2023-01-27T16:53:50.512Z,11.30
2023-01-27T16:56:28.211Z,10.60
2023-01-27T16:59:09.084Z,11.60
2023-01-27T17:01:48.475Z,11.10
2023-01-27T17:04:27.364Z,11.10
2023-01-27T17:07:13.583Z,11.38
2023-01-27T17:09:45.680Z,11.57
2023-01-27T17:12:26.039Z,11.50
2023-01-27T17:14:54.123Z,12.18
2023-01-27T17:17:27.187Z,12.52
2023-01-27T17:20:06.795Z,12.23
2023-01-27T17:22:39.918Z,11.48
2023-01-27T17:25:29.648Z,11.85
2023-01-27T17:28:00.690Z,11.93
2023-01-27T17:30:39.686Z,12.32
2023-01-27T17:33:14.538Z,12.38
2023-01-27T17:35:43.177Z,16.30
2023-01-27T17:38:14.708Z,16.52
2023-01-27T17:40:45.550Z,14.57
2023-01-27T17:43:23.410Z,13.77
2023-01-27T17:46:09.715Z,14.73
2023-01-27T17:48:41.060Z,13.15
2023-01-27T17:51:12.960Z,13.98
2023-01-27T17:53:42.555Z,14.48
2023-01-27T17:56:28.106Z,15.30
2023-01-27T17:59:07.333Z,15.57
2023-01-27T18:01:35.793Z,15.20
2023-01-27T18:04:06.204Z,19.98
2023-01-27T18:06:34.005Z,21.25
2023-01-27T18:09:15.541Z,18.83
2023-01-27T18:11:59.497Z,18.35
2023-01-27T18:17:29.950Z,18.63
2023-01-27T18:19:57.639Z,18.00
2023-01-27T18:22:29.450Z,17.10
2023-01-27T18:25:05.520Z,16.58
2023-01-27T18:27:40.738Z,15.75
2023-01-27T18:30:41.018Z,15.40
2023-01-27T18:33:45.029Z,15.77
2023-01-27T18:36:24.396Z,15.25
2023-01-27T18:38:59.544Z,15.07
2023-01-27T18:41:38.323Z,15.40
2023-01-27T18:44:12.217Z,15.20
2023-01-27T18:47:34.208Z,15.85
2023-01-27T18:50:10.794Z,15.45
2023-01-27T18:53:11.886Z,15.70
2023-01-27T18:56:21.245Z,15.40
2023-01-27T19:00:12.087Z,14.73
2023-01-27T19:02:48.635Z,16.10
2023-01-27T19:06:01.570Z,16.23
2023-01-27T19:09:04.636Z,15.40
2023-01-27T19:11:47.106Z,15.82
2023-01-27T19:14:32.163Z,16.23
2023-01-27T19:18:49.042Z,15.25
2023-01-27T19:21:28.545Z,15.45
2023-01-27T19:24:15.946Z,15.35
2023-01-27T19:27:51.221Z,15.88
2023-01-27T19:31:39.039Z,16.38
2023-01-27T19:34:27.634Z,16.50
2023-01-27T19:42:53.320Z,16.35
2023-01-27T19:45:48.729Z,17.02
2023-01-27T19:48:21.965Z,17.90
2023-01-27T19:50:57.273Z,17.42
2023-01-27T19:54:39.029Z,17.25
2023-01-27T19:57:21.920Z,16.63
2023-01-27T19:59:55.149Z,17.05
2023-01-27T20:02:43.817Z,17.23
2023-01-27T20:05:16.681Z,17.65
2023-01-27T20:08:21.485Z,17.17
2023-01-27T20:14:55.564Z,16.40
2023-01-27T20:17:37.729Z,16.08
2023-01-27T20:20:05.843Z,17.60
2023-01-27T20:22:36.174Z,17.20
2023-01-27T20:28:32.565Z,18.38
2023-01-27T20:31:19.571Z,18.88
2023-01-27T20:33:52.580Z,17.52
2023-01-27T20:36:41.740Z,18.83
2023-01-27T20:42:29.245Z,17.92
2023-01-27T20:44:58.103Z,18.60
2023-01-27T20:47:55.300Z,19.25
2023-01-27T20:50:26.383Z,19.67
2023-01-27T20:53:11.774Z,19.40
2023-01-27T20:55:42.167Z,19.42
2023-01-27T20:58:37.481Z,20.08
2023-01-27T21:01:23.357Z,20.23
2023-01-27T21:04:18.077Z,20.88
2023-01-27T21:06:51.829Z,19.52
2023-01-27T21:09:34.124Z,19.30
2023-01-27T21:12:17.510Z,18.95
2023-01-27T21:15:07.812Z,18.45
2023-01-27T21:18:16.837Z,19.67
2023-01-27T21:21:29.335Z,18.58
2023-01-27T21:24:05.097Z,19.25
2023-01-27T21:26:42.216Z,18.48
2023-01-27T21:29:11.845Z,18.90
2023-01-27T21:31:40.344Z,19.35
2023-01-27T21:34:12.001Z,18.98
2023-01-27T21:36:45.069Z,18.75
2023-01-27T21:39:15.096Z,18.25
2023-01-27T21:42:05.349Z,18.20
2023-01-27T21:44:51.847Z,17.95
2023-01-27T21:47:20.456Z,18.02
2023-01-27T21:50:00.714Z,18.50
2023-01-27T21:52:36.493Z,18.58
2023-01-27T21:55:31.611Z,18.90
2023-01-27T21:58:04.955Z,19.58
2023-01-27T22:00:43.433Z,18.63
2023-01-27T22:03:30.035Z,20.45
2023-01-27T22:06:21.681Z,18.13
2023-01-27T22:09:11.533Z,17.85
2023-01-27T22:11:52.373Z,17.42
2023-01-27T22:14:19.938Z,17.95
2023-01-27T22:17:08.667Z,18.10
2023-01-27T22:20:01.192Z,17.80
2023-01-27T22:22:33.094Z,17.50
2023-01-27T22:25:13.182Z,16.85
2023-01-27T22:28:02.417Z,3.17
2023-01-27T22:30:43.422Z,17.35
2023-01-27T22:33:32.755Z,18.63
2023-01-27T22:36:05.878Z,18.00
2023-01-27T22:38:42.554Z,17.85
2023-01-27T22:41:22.752Z,18.55
2023-01-27T22:44:04.871Z,18.73
2023-01-27T22:46:48.268Z,18.25
2023-01-27T22:49:26.091Z,18.33
2023-01-27T22:51:59.426Z,18.13
2023-01-27T22:54:27.107Z,17.33
2023-01-27T22:57:16.665Z,16.95
2023-01-27T23:00:06.168Z,15.93
2023-01-27T23:02:44.270Z,15.80
2023-01-27T23:05:17.070Z,14.82
2023-01-27T23:07:51.103Z,15.90
2023-01-27T23:10:23.999Z,14.45
2023-01-27T23:12:51.517Z,14.65
2023-01-27T23:15:19.282Z,2.20
2023-01-27T23:17:48.719Z,14.80
2023-01-27T23:20:17.150Z,14.38
2023-01-27T23:22:45.071Z,14.75
2023-01-27T23:25:17.561Z,14.07
2023-01-27T23:27:48.947Z,13.98
2023-01-27T23:30:20.161Z,14.75
2023-01-27T23:32:51.153Z,14.18
2023-01-27T23:35:22.174Z,13.98
2023-01-27T23:37:49.737Z,14.43
2023-01-27T23:40:17.571Z,13.73
2023-01-27T23:42:45.109Z,13.52
2023-01-27T23:45:13.375Z,13.95
2023-01-27T23:47:41.290Z,14.25
2023-01-27T23:50:11.494Z,14.07
2023-01-27T23:52:40.219Z,14.02
2023-01-27T23:55:19.619Z,13.95
2023-01-27T23:57:52.169Z,14.30
